Time;durP1;ratioP1;P1;durP2;ratioP2;P2;SDS_P1;SDS_P2;PMS_P1;PMS_P2;Temp;Humidity;BMP_temperature;BMP_pressure;BME280_temperature;BME280_humidity;BME280_pressure;Samples;Min_cycle;Max_cycle;Signal;HPM_P1;HPM_P2
2023/10/03 00:01:49;;;;;;;25.77;14.05;;;19.60;82.40;;;;;;5025173;28;20064;-73
2023/10/03 00:04:15;;;;;;;27.38;14.10;;;19.50;82.30;;;;;;5035427;28;20029;-72
2023/10/03 00:06:41;;;;;;;24.35;13.00;;;19.50;82.30;;;;;;5035243;28;20471;-72
2023/10/03 00:09:08;;;;;;;25.50;12.82;;;19.60;82.20;;;;;;5037011;28;20033;-72
2023/10/03 00:11:35;;;;;;;25.23;13.10;;;19.60;82.10;;;;;;5036439;28;20029;-73
2023/10/03 00:14:03;;;;;;;26.08;13.38;;;19.60;81.90;;;;;;5036195;28;20026;-72
2023/10/03 00:16:29;;;;;;;25.88;13.77;;;19.50;81.90;;;;;;5049148;28;20021;-72
2023/10/03 00:18:55;;;;;;;27.23;14.23;;;19.60;81.90;;;;;;5036249;28;20477;-73
2023/10/03 00:21:20;;;;;;;24.98;14.07;;;19.50;81.70;;;;;;5037290;28;20041;-72
2023/10/03 00:23:46;;;;;;;26.63;13.50;;;19.60;81.70;;;;;;5032153;28;20057;-73
2023/10/03 00:26:16;;;;;;;27.08;14.60;;;19.60;81.70;;;;;;5036915;28;20108;-72
2023/10/03 00:28:43;;;;;;;26.35;13.40;;;19.50;81.50;;;;;;5033700;28;20054;-73
2023/10/03 00:31:46;;;;;;;27.40;13.52;;;19.50;81.50;;;;;;5037272;28;20025;-73
2023/10/03 00:34:13;;;;;;;27.52;13.10;;;19.60;81.40;;;;;;5034409;28;20028;-72
2023/10/03 00:36:38;;;;;;;24.42;12.25;;;19.50;81.30;;;;;;5035310;28;20064;-72
2023/10/03 00:39:06;;;;;;;28.13;14.23;;;19.60;81.40;;;;;;5035014;28;20455;-72
2023/10/03 00:41:34;;;;;;;27.15;13.00;;;19.60;81.30;;;;;;5037006;28;20332;-72
2023/10/03 00:44:04;;;;;;;30.50;13.45;;;19.60;81.30;;;;;;5034083;28;20025;-72
2023/10/03 00:46:31;;;;;;;25.65;12.93;;;19.50;81.20;;;;;;5037125;28;20029;-72
2023/10/03 00:48:58;;;;;;;24.67;13.48;;;19.60;81.30;;;;;;5035095;28;20014;-72
2023/10/03 00:51:26;;;;;;;25.25;12.63;;;19.60;81.20;;;;;;5037102;28;20029;-73
2023/10/03 00:53:56;;;;;;;28.75;13.02;;;19.60;81.20;;;;;;5034819;28;20021;-73
2023/10/03 00:56:22;;;;;;;26.50;12.88;;;19.50;81.20;;;;;;5036644;28;20033;-73
2023/10/03 00:58:48;;;;;;;23.20;12.32;;;19.50;81.20;;;;;;5034822;28;20045;-72
2023/10/03 01:01:15;;;;;;;27.33;13.30;;;19.50;81.10;;;;;;5034408;28;20041;-72
2023/10/03 01:03:41;;;;;;;26.90;13.13;;;19.50;81.10;;;;;;5032833;28;20026;-72
2023/10/03 01:06:09;;;;;;;24.17;12.73;;;19.50;81.10;;;;;;5034453;28;20034;-72
2023/10/03 01:08:46;;;;;;;28.25;13.73;;;19.40;81.00;;;;;;5027820;28;20049;-72
2023/10/03 01:11:18;;;;;;;29.90;14.30;;;19.40;80.90;;;;;;5032909;28;20037;-72
2023/10/03 01:13:49;;;;;;;25.80;13.38;;;19.40;80.90;;;;;;5042688;28;20326;-72
2023/10/03 01:16:33;;;;;;;22.42;11.55;;;19.40;80.90;;;;;;5036473;28;20409;-72
2023/10/03 01:19:26;;;;;;;26.90;13.15;;;19.40;80.90;;;;;;5034830;28;20083;-72
2023/10/03 01:21:50;;;;;;;23.77;11.75;;;19.40;80.90;;;;;;5034955;28;20037;-72
2023/10/03 01:24:24;;;;;;;28.13;13.10;;;19.30;80.90;;;;;;5033438;28;20517;-72
2023/10/03 01:30:40;;;;;;;26.63;12.48;;;19.30;80.80;;;;;;5035381;28;20124;-72
2023/10/03 01:33:07;;;;;;;27.15;14.02;;;19.20;80.90;;;;;;5033619;28;20493;-72
2023/10/03 01:35:33;;;;;;;27.60;13.48;;;19.20;80.90;;;;;;5032000;28;20332;-72
2023/10/03 01:38:00;;;;;;;28.00;13.30;;;19.20;80.90;;;;;;5033735;28;20030;-72
2023/10/03 01:40:26;;;;;;;26.58;12.38;;;19.20;80.90;;;;;;5034494;28;20447;-72
2023/10/03 01:42:52;;;;;;;26.23;13.20;;;19.20;80.90;;;;;;5033830;28;20344;-72
2023/10/03 01:45:20;;;;;;;24.58;12.52;;;19.20;80.90;;;;;;5033945;28;20139;-72
2023/10/03 01:47:49;;;;;;;29.58;13.27;;;19.20;80.90;;;;;;5035069;28;20480;-72
2023/10/03 01:50:17;;;;;;;28.48;13.30;;;19.10;80.90;;;;;;5025534;28;20049;-72
2023/10/03 01:52:43;;;;;;;27.88;14.27;;;19.10;80.90;;;;;;5041553;28;20021;-72
2023/10/03 01:55:14;;;;;;;28.20;14.90;;;19.10;80.90;;;;;;5033215;28;20014;-72
2023/10/03 01:57:41;;;;;;;26.55;13.70;;;19.10;80.90;;;;;;5033921;28;20116;-72
2023/10/03 02:00:25;;;;;;;25.13;12.90;;;19.10;80.90;;;;;;5032797;28;20022;-72
2023/10/03 02:02:53;;;;;;;24.65;12.38;;;19.10;80.90;;;;;;5033319;28;20059;-72
2023/10/03 02:05:26;;;;;;;26.50;13.38;;;19.10;81.00;;;;;;5033516;28;20026;-72
2023/10/03 02:08:03;;;;;;;29.30;13.65;;;19.10;80.90;;;;;;5033426;28;20021;-72
2023/10/03 02:10:30;;;;;;;27.63;13.88;;;19.10;81.00;;;;;;5017352;28;20120;-72
2023/10/03 02:12:56;;;;;;;28.13;13.70;;;19.10;81.00;;;;;;5034599;28;20017;-72
2023/10/03 02:15:26;;;;;;;27.73;13.23;;;19.10;80.90;;;;;;5044486;28;20021;-72
2023/10/03 02:21:42;;;;;;;25.92;12.07;;;19.10;80.90;;;;;;5034793;28;20087;-72
2023/10/03 02:24:08;;;;;;;30.95;13.98;;;19.10;80.90;;;;;;5031179;28;20048;-72
2023/10/03 02:26:34;;;;;;;30.77;14.15;;;19.10;81.00;;;;;;5016489;28;20034;-72
2023/10/03 02:29:00;;;;;;;24.40;12.85;;;19.10;81.00;;;;;;5029063;28;20572;-72
2023/10/03 02:31:26;;;;;;;30.02;14.13;;;19.10;81.00;;;;;;5033635;28;20153;-72
2023/10/03 02:33:53;;;;;;;29.85;14.25;;;19.10;81.00;;;;;;5032185;28;20022;-72
2023/10/03 02:36:21;;;;;;;30.58;14.85;;;19.10;81.00;;;;;;5019889;28;20036;-72
2023/10/03 02:38:47;;;;;;;28.95;13.63;;;19.10;81.00;;;;;;5034221;28;20037;-72
2023/10/03 02:41:15;;;;;;;24.60;13.10;;;19.10;80.90;;;;;;5034240;28;20343;-72
2023/10/03 02:43:42;;;;;;;29.42;13.65;;;19.10;81.00;;;;;;5030750;28;20021;-72
2023/10/03 02:46:14;;;;;;;27.33;13.48;;;19.10;80.90;;;;;;5032236;28;20113;-72
2023/10/03 02:48:51;;;;;;;26.50;13.73;;;19.10;80.70;;;;;;5032284;28;20036;-73
2023/10/03 02:51:17;;;;;;;26.95;12.88;;;19.20;80.50;;;;;;5031561;28;20037;-73
2023/10/03 02:53:43;;;;;;;27.00;12.45;;;19.20;80.20;;;;;;5015998;28;20083;-72
2023/10/03 02:56:09;;;;;;;27.40;14.43;;;19.30;80.00;;;;;;5031496;28;20064;-72
2023/10/03 02:58:35;;;;;;;28.27;13.48;;;19.40;79.90;;;;;;5016993;28;20029;-72
2023/10/03 03:01:03;;;;;;;28.02;12.88;;;19.40;79.70;;;;;;5032513;28;20048;-72
2023/10/03 03:03:32;;;;;;;29.60;13.70;;;19.40;79.60;;;;;;5032147;28;20107;-72
2023/10/03 03:06:09;;;;;;;25.15;13.18;;;19.50;79.60;;;;;;5015936;28;20445;-72
2023/10/03 03:08:38;;;;;;;23.23;12.20;;;19.50;79.40;;;;;;5047580;28;20017;-72
2023/10/03 03:11:03;;;;;;;26.08;12.88;;;19.60;79.40;;;;;;5032777;28;20022;-73
2023/10/03 03:13:31;;;;;;;28.67;13.65;;;19.60;79.20;;;;;;5015896;28;20025;-72
2023/10/03 03:16:03;;;;;;;25.15;12.18;;;19.60;79.10;;;;;;5032279;28;20053;-73
2023/10/03 03:18:53;;;;;;;26.63;12.73;;;19.60;79.00;;;;;;5033224;28;20033;-72
2023/10/03 03:21:20;;;;;;;32.72;14.02;;;19.70;79.00;;;;;;5025295;28;20037;-72
2023/10/03 03:24:00;;;;;;;23.95;11.93;;;19.70;78.90;;;;;;5030966;28;20041;-72
2023/10/03 03:26:39;;;;;;;25.70;12.75;;;19.70;78.70;;;;;;5033194;28;20042;-72
2023/10/03 03:29:19;;;;;;;25.70;11.88;;;19.80;78.60;;;;;;5034083;28;20091;-72
2023/10/03 03:31:46;;;;;;;28.08;13.07;;;19.80;78.50;;;;;;5033219;28;20108;-73
2023/10/03 03:34:12;;;;;;;25.08;12.75;;;19.80;78.60;;;;;;5031650;28;20051;-72
2023/10/03 03:36:40;;;;;;;22.48;11.82;;;19.80;78.70;;;;;;5032260;28;20378;-72
2023/10/03 03:39:15;;;;;;;26.90;11.73;;;19.80;78.70;;;;;;5032355;28;20065;-72
2023/10/03 03:41:42;;;;;;;26.55;11.95;;;19.80;78.60;;;;;;5033166;28;20055;-72
2023/10/03 03:44:11;;;;;;;24.35;11.07;;;19.80;78.60;;;;;;5028966;28;20026;-73
2023/10/03 03:46:40;;;;;;;27.95;12.25;;;19.80;78.50;;;;;;5032176;28;20111;-72
2023/10/03 03:49:08;;;;;;;25.40;12.57;;;19.80;78.60;;;;;;5033928;28;20443;-72
2023/10/03 03:51:34;;;;;;;26.33;11.68;;;19.80;78.50;;;;;;5033258;28;20030;-72
2023/10/03 03:54:00;;;;;;;23.15;11.65;;;19.90;78.50;;;;;;5029610;28;20030;-72
2023/10/03 03:56:26;;;;;;;26.30;12.63;;;19.90;78.80;;;;;;5031117;28;20041;-72
2023/10/03 03:58:52;;;;;;;23.48;11.95;;;19.90;79.10;;;;;;5032232;28;20075;-72
2023/10/03 04:01:19;;;;;;;27.17;12.88;;;19.90;78.40;;;;;;5033086;28;20033;-72
2023/10/03 04:03:49;;;;;;;23.98;11.80;;;19.90;78.40;;;;;;5032071;28;20036;-72
2023/10/03 04:06:15;;;;;;;25.00;11.20;;;19.90;78.40;;;;;;5031588;28;20030;-73
2023/10/03 04:08:42;;;;;;;24.40;11.65;;;19.90;78.40;;;;;;5033676;28;20378;-72
2023/10/03 04:11:08;;;;;;;25.08;11.73;;;19.90;78.40;;;;;;5031367;28;20026;-72
2023/10/03 04:17:22;;;;;;;23.88;10.48;;;20.00;78.30;;;;;;5032270;28;20089;-71
2023/10/03 04:19:48;;;;;;;26.17;10.55;;;20.00;78.30;;;;;;5031498;28;20030;-71
2023/10/03 04:22:14;;;;;;;20.90;10.77;;;20.00;78.30;;;;;;5034811;28;20397;-71
2023/10/03 04:24:39;;;;;;;25.55;10.13;;;20.00;78.30;;;;;;5035252;28;20041;-72
2023/10/03 04:27:07;;;;;;;21.00;9.05;;;20.00;78.30;;;;;;5030456;28;20072;-72
2023/10/03 04:29:33;;;;;;;20.13;9.73;;;20.00;78.20;;;;;;5039104;28;20052;-72
2023/10/03 04:31:59;;;;;;;18.95;9.70;;;20.00;78.20;;;;;;5032257;28;20369;-72
2023/10/03 04:34:24;;;;;;;20.10;9.57;;;20.00;78.20;;;;;;5042449;28;20033;-67
2023/10/03 04:36:50;;;;;;;21.23;9.15;;;20.00;78.20;;;;;;5049185;28;20013;-67
2023/10/03 04:39:18;;;;;;;19.98;8.73;;;20.00;78.20;;;;;;5033116;28;20458;-67
2023/10/03 04:41:45;;;;;;;17.10;8.65;;;20.10;78.20;;;;;;5030867;28;20160;-67
2023/10/03 04:44:15;;;;;;;22.23;10.20;;;20.10;78.20;;;;;;5033140;28;20518;-67
2023/10/03 04:46:41;;;;;;;19.58;9.63;;;20.10;78.30;;;;;;5033154;28;20032;-67
2023/10/03 04:49:07;;;;;;;20.90;8.52;;;20.10;78.30;;;;;;5035220;28;20021;-67
2023/10/03 04:51:33;;;;;;;19.52;8.45;;;20.10;78.30;;;;;;5037774;28;20021;-67
2023/10/03 04:53:59;;;;;;;16.38;7.32;;;20.10;78.30;;;;;;5029597;28;20505;-66
2023/10/03 04:56:25;;;;;;;14.23;6.20;;;20.10;78.30;;;;;;5031821;28;20029;-67
2023/10/03 04:58:50;;;;;;;12.60;6.18;;;20.10;78.20;;;;;;5034003;28;20036;-66
2023/10/03 05:01:16;;;;;;;12.55;5.97;;;20.00;78.20;;;;;;5035956;28;20025;-67
2023/10/03 05:03:42;;;;;;;13.50;5.63;;;20.00;78.30;;;;;;5032266;28;20120;-66
2023/10/03 05:06:11;;;;;;;12.40;5.00;;;20.00;78.30;;;;;;5032926;28;20101;-67
2023/10/03 05:08:37;;;;;;;11.35;5.60;;;20.00;78.90;;;;;;5035425;28;20355;-67
2023/10/03 05:11:03;;;;;;;13.80;5.07;;;20.00;78.30;;;;;;5036600;28;20044;-67
2023/10/03 05:13:29;;;;;;;10.27;5.20;;;20.00;78.30;;;;;;5033848;28;20032;-67
2023/10/03 05:15:55;;;;;;;10.38;5.38;;;19.90;78.20;;;;;;5019474;28;20104;-67
2023/10/03 05:18:20;;;;;;;11.02;5.43;;;19.90;78.20;;;;;;5036912;28;20334;-67
2023/10/03 05:20:48;;;;;;;14.10;5.22;;;19.90;78.10;;;;;;5035664;28;20022;-67
2023/10/03 05:23:15;;;;;;;9.20;4.55;;;19.90;78.10;;;;;;5034633;28;20132;-67
2023/10/03 05:25:43;;;;;;;9.80;4.50;;;19.90;78.00;;;;;;5036414;28;20033;-67
2023/10/03 05:28:11;;;;;;;10.60;4.75;;;19.90;77.90;;;;;;5035397;28;20044;-67
2023/10/03 05:30:38;;;;;;;11.25;4.68;;;19.90;77.80;;;;;;5036791;28;20029;-67
2023/10/03 05:33:07;;;;;;;11.38;4.45;;;19.90;77.70;;;;;;5035508;28;20026;-67
2023/10/03 05:35:33;;;;;;;10.00;4.50;;;19.90;77.70;;;;;;5036006;28;20022;-67
2023/10/03 05:37:59;;;;;;;10.45;4.47;;;19.90;77.70;;;;;;5034674;28;20136;-67
2023/10/03 05:40:26;;;;;;;8.65;4.00;;;19.90;77.70;;;;;;5050043;28;20041;-67
2023/10/03 05:42:52;;;;;;;10.15;4.90;;;19.90;77.70;;;;;;5033431;28;20112;-67
2023/10/03 05:45:19;;;;;;;9.38;4.72;;;19.80;77.60;;;;;;5032755;28;20115;-66
2023/10/03 05:47:48;;;;;;;9.90;4.63;;;19.90;77.60;;;;;;5033566;28;20466;-68
2023/10/03 05:50:16;;;;;;;9.57;4.32;;;19.90;77.50;;;;;;5017146;28;20339;-68
2023/10/03 05:52:45;;;;;;;9.98;4.57;;;19.80;77.50;;;;;;5030597;28;20084;-66
2023/10/03 05:55:12;;;;;;;10.48;4.05;;;19.80;77.40;;;;;;5042851;28;20021;-68
2023/10/03 05:57:40;;;;;;;10.73;4.28;;;19.90;77.50;;;;;;5042496;28;20037;-67
2023/10/03 06:00:09;;;;;;;8.98;4.43;;;19.80;77.50;;;;;;5032377;28;20040;-67
2023/10/03 06:02:39;;;;;;;10.25;4.47;;;19.90;77.50;;;;;;5011671;28;20113;-67
2023/10/03 06:05:08;;;;;;;10.52;4.43;;;19.90;77.40;;;;;;5024951;28;20452;-67
2023/10/03 06:07:36;;;;;;;8.77;4.25;;;19.90;77.40;;;;;;5031549;28;20103;-67
2023/10/03 06:10:04;;;;;;;8.35;4.22;;;19.90;77.40;;;;;;5027360;28;20107;-67
2023/10/03 06:12:31;;;;;;;9.48;4.00;;;19.90;77.40;;;;;;5028730;28;20040;-67
2023/10/03 06:14:56;;;;;;;14.70;5.20;;;19.90;77.40;;;;;;5033636;28;20091;-67
2023/10/03 06:17:22;;;;;;;10.23;4.20;;;19.90;77.40;;;;;;5033612;28;20042;-67
2023/10/03 06:19:50;;;;;;;11.15;4.32;;;19.90;77.40;;;;;;5032508;28;20029;-67
2023/10/03 06:22:17;;;;;;;8.43;3.88;;;19.90;77.40;;;;;;5033261;28;20041;-67
2023/10/03 06:24:43;;;;;;;10.43;4.70;;;19.90;77.40;;;;;;5034076;28;20037;-67
2023/10/03 06:27:10;;;;;;;8.98;4.38;;;19.90;77.40;;;;;;5032847;28;20026;-67
2023/10/03 06:29:39;;;;;;;10.55;4.60;;;19.90;77.30;;;;;;5033533;28;20033;-67
2023/10/03 06:32:04;;;;;;;8.45;4.35;;;19.90;77.30;;;;;;5031587;28;21765;-67
2023/10/03 06:34:30;;;;;;;9.02;4.65;;;19.90;77.40;;;;;;5043458;28;20108;-67
2023/10/03 06:36:56;;;;;;;9.90;4.43;;;19.90;77.30;;;;;;5029200;28;20025;-67
2023/10/03 06:39:22;;;;;;;11.38;4.85;;;19.90;77.30;;;;;;5030883;28;20037;-68
2023/10/03 06:41:47;;;;;;;8.98;4.00;;;19.90;77.30;;;;;;5011968;28;20029;-68
2023/10/03 06:44:13;;;;;;;10.07;4.82;;;20.00;77.30;;;;;;5028673;28;20037;-68
2023/10/03 06:46:42;;;;;;;10.07;4.47;;;20.00;77.20;;;;;;5028943;28;20036;-70
2023/10/03 06:49:11;;;;;;;8.80;4.35;;;20.00;77.10;;;;;;5029384;28;20113;-68
2023/10/03 06:51:37;;;;;;;11.85;4.93;;;20.10;77.20;;;;;;5028825;28;20021;-67
2023/10/03 06:54:03;;;;;;;11.18;5.15;;;20.10;77.10;;;;;;5029874;28;20021;-67
2023/10/03 06:56:32;;;;;;;11.45;4.82;;;20.10;77.10;;;;;;5028968;28;20018;-67
2023/10/03 06:58:59;;;;;;;8.68;4.82;;;20.10;77.10;;;;;;5026463;28;20332;-67
2023/10/03 07:01:25;;;;;;;9.98;5.15;;;20.10;77.10;;;;;;5028609;28;20029;-68
2023/10/03 07:03:53;;;;;;;9.93;5.15;;;20.10;77.10;;;;;;5028504;28;20029;-67
2023/10/03 07:06:20;;;;;;;10.65;4.55;;;20.10;77.10;;;;;;5026138;28;20040;-67
2023/10/03 07:08:46;;;;;;;10.30;4.70;;;20.10;77.10;;;;;;5044997;28;20021;-68
2023/10/03 07:11:16;;;;;;;8.57;4.68;;;20.10;77.00;;;;;;5044227;28;20096;-68
2023/10/03 07:13:43;;;;;;;12.93;5.03;;;20.20;77.00;;;;;;5025357;28;20025;-68
2023/10/03 07:16:09;;;;;;;12.15;5.03;;;20.20;76.90;;;;;;5025897;28;20040;-68
2023/10/03 07:18:35;;;;;;;10.63;5.15;;;20.30;76.70;;;;;;5044820;28;20030;-67
2023/10/03 07:21:03;;;;;;;8.07;4.03;;;20.30;76.50;;;;;;5034690;28;20038;-67
2023/10/03 07:23:29;;;;;;;9.93;4.40;;;20.30;76.40;;;;;;5033248;28;20056;-68
2023/10/03 07:25:55;;;;;;;8.48;4.05;;;20.30;76.50;;;;;;5032809;28;20033;-68
2023/10/03 07:28:21;;;;;;;10.63;4.60;;;20.30;76.50;;;;;;5049346;28;20439;-68
2023/10/03 07:30:46;;;;;;;10.35;4.55;;;20.30;76.60;;;;;;5042215;28;20421;-68
2023/10/03 07:33:12;;;;;;;9.68;4.32;;;20.30;76.70;;;;;;5029321;28;20342;-67
2023/10/03 07:35:42;;;;;;;9.52;4.07;;;20.30;76.90;;;;;;5028667;28;20018;-68
2023/10/03 07:38:11;;;;;;;10.70;5.03;;;20.20;77.00;;;;;;5027715;28;20033;-67
2023/10/03 07:40:38;;;;;;;9.23;4.75;;;20.20;77.30;;;;;;5028370;28;20036;-67
2023/10/03 07:43:10;;;;;;;9.82;4.80;;;20.20;77.60;;;;;;5028979;28;20125;-67
2023/10/03 07:45:40;;;;;;;9.70;5.10;;;20.10;77.90;;;;;;5028395;28;20100;-68
2023/10/03 07:48:09;;;;;;;9.00;5.00;;;20.00;78.20;;;;;;5043249;28;20430;-67
2023/10/03 07:50:37;;;;;;;11.85;4.82;;;19.90;78.60;;;;;;5036032;28;20417;-69
2023/10/03 07:53:04;;;;;;;10.45;4.78;;;19.90;78.90;;;;;;5026812;28;20032;-68
2023/10/03 07:55:35;;;;;;;9.55;4.90;;;19.80;79.10;;;;;;5028504;28;20021;-68
2023/10/03 07:58:01;;;;;;;8.90;4.88;;;19.90;79.30;;;;;;5027616;28;20116;-69
2023/10/03 08:00:27;;;;;;;10.30;4.68;;;19.90;79.20;;;;;;5027069;28;20034;-67
2023/10/03 08:02:53;;;;;;;9.25;4.13;;;19.90;79.20;;;;;;5026390;28;20037;-67
2023/10/03 08:05:19;;;;;;;8.18;4.32;;;19.90;79.10;;;;;;5027241;28;20087;-67
2023/10/03 08:07:47;;;;;;;10.13;4.22;;;19.90;79.70;;;;;;5040493;28;20033;-67
2023/10/03 08:10:17;;;;;;;9.00;3.83;;;19.90;79.00;;;;;;5043940;28;20116;-67
2023/10/03 08:12:44;;;;;;;8.15;4.18;;;20.00;79.00;;;;;;5029464;28;20052;-67
2023/10/03 08:15:20;;;;;;;7.47;3.60;;;20.00;79.00;;;;;;5032350;28;20058;-66
2023/10/03 08:17:53;;;;;;;9.73;3.72;;;20.00;78.90;;;;;;5031172;28;20095;-67
2023/10/03 08:20:20;;;;;;;8.45;3.83;;;20.00;78.90;;;;;;5034066;28;20073;-69
2023/10/03 08:26:47;;;;;;;9.07;3.17;;;20.00;78.60;;;;;;5027354;28;20611;-68
2023/10/03 08:29:21;;;;;;;5.82;2.42;;;20.00;78.50;;;;;;5012091;28;20018;-68
2023/10/03 08:31:57;;;;;;;7.75;2.75;;;20.00;78.40;;;;;;5028782;28;20068;-68
2023/10/03 08:34:31;;;;;;;8.25;2.65;;;20.00;78.30;;;;;;5030109;28;20061;-68
2023/10/03 08:37:01;;;;;;;5.78;2.08;;;20.00;78.30;;;;;;5035914;28;20036;-68
2023/10/03 08:39:34;;;;;;;7.35;2.65;;;19.90;78.30;;;;;;5035772;28;20512;-67
2023/10/03 08:42:12;;;;;;;8.18;2.10;;;19.90;78.30;;;;;;5036634;28;20064;-68
2023/10/03 08:44:51;;;;;;;9.40;2.67;;;19.90;78.40;;;;;;5052738;28;20522;-67
2023/10/03 08:47:38;;;;;;;7.22;2.08;;;19.90;78.40;;;;;;5035069;28;20454;-67
2023/10/03 08:50:11;;;;;;;7.60;2.30;;;19.90;78.50;;;;;;5024381;28;20388;-68
2023/10/03 08:52:46;;;;;;;7.32;2.30;;;19.80;78.80;;;;;;5052547;28;20033;-68
2023/10/03 08:55:14;;;;;;;7.05;2.17;;;19.70;79.20;;;;;;5035207;28;20029;-67
2023/10/03 08:57:41;;;;;;;5.72;2.15;;;19.70;79.50;;;;;;5036574;28;20049;-68
2023/10/03 09:00:10;;;;;;;6.00;1.90;;;19.60;79.90;;;;;;5036960;28;20029;-68
2023/10/03 09:02:45;;;;;;;5.72;2.10;;;19.60;80.10;;;;;;5052433;28;20025;-68
2023/10/03 09:05:24;;;;;;;6.13;1.95;;;19.60;80.40;;;;;;5035655;28;20367;-67
2023/10/03 09:07:50;;;;;;;6.80;1.98;;;19.50;80.70;;;;;;5035383;28;20332;-68
2023/10/03 09:10:24;;;;;;;6.32;1.83;;;19.40;80.90;;;;;;5036422;28;20408;-67
2023/10/03 09:13:12;;;;;;;6.00;1.60;;;19.40;81.10;;;;;;5034853;28;20038;-67
2023/10/03 09:15:42;;;;;;;6.03;1.48;;;19.40;81.30;;;;;;5050349;28;20167;-68
2023/10/03 09:21:25;;;;;;;6.03;1.60;;;19.30;81.20;;;;;;5034596;28;20040;-68
2023/10/03 09:24:17;;;;;;;3.72;1.20;;;19.30;81.10;;;;;;5033664;28;20446;-67
2023/10/03 09:26:45;;;;;;;4.10;1.60;;;19.30;81.10;;;;;;5034528;28;20438;-67
2023/10/03 09:29:31;;;;;;;3.97;1.25;;;19.30;81.00;;;;;;5035222;28;20056;-67
2023/10/03 09:32:07;;;;;;;4.50;1.45;;;19.30;80.90;;;;;;5036200;28;20220;-67
2023/10/03 09:34:34;;;;;;;1.67;0.88;;;19.30;80.90;;;;;;5035011;28;20036;-67
2023/10/03 09:37:03;;;;;;;3.08;0.93;;;19.30;80.80;;;;;;5036325;28;20095;-67
2023/10/03 09:39:39;;;;;;;5.32;1.42;;;19.30;80.90;;;;;;5051239;28;20057;-67
2023/10/03 09:42:15;;;;;;;7.75;1.40;;;19.40;80.70;;;;;;5035073;28;20120;-67
2023/10/03 09:44:45;;;;;;;4.60;1.55;;;19.40;80.90;;;;;;5034413;28;20029;-67
2023/10/03 09:47:13;;;;;;;5.05;1.45;;;19.60;80.10;;;;;;5051646;28;20095;-68
2023/10/03 09:49:39;;;;;;;4.47;1.50;;;19.70;79.80;;;;;;5035765;28;20030;-68
2023/10/03 09:52:08;;;;;;;5.22;1.40;;;19.80;79.50;;;;;;5036164;28;20096;-67
2023/10/03 09:54:36;;;;;;;4.18;1.23;;;19.80;79.20;;;;;;5034409;28;20045;-67
2023/10/03 09:57:15;;;;;;;6.35;1.77;;;19.90;79.00;;;;;;5050764;28;20030;-67
2023/10/03 09:59:45;;;;;;;5.30;1.20;;;19.90;78.70;;;;;;5035690;28;20299;-67
2023/10/03 10:02:12;;;;;;;4.93;1.40;;;19.80;78.70;;;;;;5035785;28;20036;-67
2023/10/03 10:04:40;;;;;;;4.80;0.90;;;19.70;78.70;;;;;;5035082;28;20112;-67
2023/10/03 10:07:33;;;;;;;4.65;1.30;;;19.60;78.70;;;;;;5031333;28;20037;-67
2023/10/03 10:10:14;;;;;;;4.03;1.30;;;19.60;78.80;;;;;;5033345;28;20049;-67
2023/10/03 10:13:13;;;;;;;4.80;1.48;;;19.50;78.90;;;;;;5034273;28;20032;-67
2023/10/03 10:16:00;;;;;;;3.88;1.30;;;19.50;78.80;;;;;;5035120;28;20091;-67
2023/10/03 10:18:44;;;;;;;3.13;1.05;;;19.60;78.70;;;;;;5046466;28;20030;-68
2023/10/03 10:21:39;;;;;;;3.50;1.15;;;19.50;78.20;;;;;;5049857;28;20116;-68
2023/10/03 10:24:20;;;;;;;2.85;0.93;;;19.50;78.10;;;;;;5034272;28;20056;-68
2023/10/03 10:26:48;;;;;;;4.10;1.30;;;19.50;78.00;;;;;;5033327;28;20057;-68
2023/10/03 10:29:19;;;;;;;3.95;1.30;;;19.50;77.90;;;;;;5050962;28;20030;-67
2023/10/03 10:31:52;;;;;;;6.47;1.33;;;19.60;77.60;;;;;;5032641;28;20057;-67
2023/10/03 10:34:20;;;;;;;4.40;1.30;;;19.60;77.60;;;;;;5034274;28;20410;-68
2023/10/03 10:37:02;;;;;;;2.72;1.20;;;19.50;77.40;;;;;;5030405;28;20037;-68
2023/10/03 10:43:16;;;;;;;4.18;1.25;;;19.50;77.20;;;;;;5033644;28;20462;-67
2023/10/03 10:45:44;;;;;;;2.97;1.20;;;19.50;77.60;;;;;;5034356;28;20029;-67
2023/10/03 10:48:12;;;;;;;3.85;1.40;;;19.50;77.40;;;;;;5032290;28;20021;-68
2023/10/03 10:51:04;;;;;;;5.15;1.75;;;19.50;77.30;;;;;;5033471;28;20492;-67
2023/10/03 10:53:42;;;;;;;3.78;1.30;;;19.40;77.20;;;;;;5030130;28;20370;-67
2023/10/03 10:56:09;;;;;;;4.88;1.38;;;19.40;77.10;;;;;;5032162;28;20017;-67
2023/10/03 10:59:01;;;;;;;4.00;1.08;;;19.40;77.20;;;;;;5031364;28;20419;-67
2023/10/03 11:01:27;;;;;;;3.22;0.88;;;19.30;77.00;;;;;;5045990;28;20115;-67
2023/10/03 11:03:53;;;;;;;3.38;1.20;;;19.30;77.20;;;;;;5034594;28;20032;-68
2023/10/03 11:06:20;;;;;;;3.38;1.17;;;19.30;77.30;;;;;;5033763;28;20044;-68
2023/10/03 11:08:50;;;;;;;5.30;1.45;;;19.30;77.20;;;;;;5032616;28;20064;-67
2023/10/03 11:11:16;;;;;;;3.28;1.17;;;19.30;77.20;;;;;;5048903;28;20171;-68
2023/10/03 11:13:47;;;;;;;2.17;0.93;;;19.20;76.90;;;;;;5030990;28;20631;-68
2023/10/03 11:16:21;;;;;;;2.47;0.90;;;19.20;76.90;;;;;;5031374;28;20037;-67
2023/10/03 11:18:49;;;;;;;4.03;1.10;;;19.20;76.90;;;;;;5030939;28;20041;-67
2023/10/03 11:21:16;;;;;;;1.85;0.77;;;19.20;76.90;;;;;;5019512;28;20853;-67
2023/10/03 11:24:21;;;;;;;4.20;1.10;;;19.20;76.80;;;;;;5032707;28;20037;-67
2023/10/03 11:26:47;;;;;;;5.60;1.42;;;19.10;76.70;;;;;;5046088;28;20029;-67
2023/10/03 11:29:17;;;;;;;4.40;1.30;;;19.10;76.60;;;;;;5034473;28;20032;-68
2023/10/03 11:31:44;;;;;;;5.03;1.38;;;19.10;76.50;;;;;;5049250;28;20442;-67
2023/10/03 11:34:10;;;;;;;3.92;1.13;;;19.10;76.70;;;;;;5032409;28;20026;-68
2023/10/03 11:36:41;;;;;;;4.78;1.35;;;19.10;77.00;;;;;;5031042;28;20048;-67
2023/10/03 11:39:07;;;;;;;2.85;1.40;;;19.10;77.30;;;;;;5033043;28;20319;-67
2023/10/03 11:41:34;;;;;;;4.55;1.15;;;19.00;77.50;;;;;;5032119;28;20044;-67
2023/10/03 11:44:00;;;;;;;4.43;1.23;;;19.00;77.60;;;;;;5032225;28;20115;-67
2023/10/03 11:46:26;;;;;;;2.72;1.08;;;19.00;77.60;;;;;;5036040;28;20427;-67
2023/10/03 11:48:56;;;;;;;3.72;1.40;;;19.00;77.70;;;;;;5036428;28;20104;-67
2023/10/03 11:51:22;;;;;;;6.72;1.65;;;18.90;77.80;;;;;;5053478;28;20051;-67
2023/10/03 11:53:49;;;;;;;4.63;1.65;;;18.90;77.90;;;;;;5034940;28;20057;-68
2023/10/03 11:56:17;;;;;;;5.28;1.38;;;18.80;78.10;;;;;;5036680;28;20040;-67
2023/10/03 11:58:42;;;;;;;3.35;1.20;;;18.80;78.00;;;;;;5035414;28;20087;-67
2023/10/03 12:01:08;;;;;;;5.32;1.35;;;18.80;77.80;;;;;;5037906;28;20029;-75
2023/10/03 12:03:34;;;;;;;4.93;1.50;;;18.70;77.80;;;;;;5036190;28;20056;-75
2023/10/03 12:06:00;;;;;;;4.72;1.40;;;18.70;77.80;;;;;;5052776;28;20340;-74
2023/10/03 12:08:26;;;;;;;5.50;1.50;;;18.70;77.90;;;;;;5033838;28;20394;-74
2023/10/03 12:10:51;;;;;;;7.28;1.67;;;18.70;77.80;;;;;;5036613;28;20037;-74
2023/10/03 12:13:18;;;;;;;6.15;1.67;;;18.70;77.90;;;;;;5029726;28;20025;-74
2023/10/03 12:15:44;;;;;;;6.28;1.80;;;18.70;77.80;;;;;;5031401;28;20991;-74
2023/10/03 12:18:11;;;;;;;6.65;2.10;;;18.60;78.00;;;;;;5050178;28;20075;-75
2023/10/03 12:20:38;;;;;;;5.25;1.80;;;18.60;78.30;;;;;;5034472;28;20458;-75
2023/10/03 12:23:04;;;;;;;5.68;1.70;;;18.50;78.50;;;;;;5035242;28;20339;-75
2023/10/03 12:25:30;;;;;;;5.65;2.05;;;18.30;78.50;;;;;;5036729;28;20451;-75
2023/10/03 12:27:56;;;;;;;7.75;1.85;;;18.30;78.50;;;;;;5037692;28;20080;-75
2023/10/03 12:30:22;;;;;;;7.20;2.22;;;18.30;78.70;;;;;;5036635;28;20062;-75
2023/10/03 12:32:50;;;;;;;5.93;2.03;;;18.20;78.50;;;;;;5036811;28;20406;-75
2023/10/03 12:35:16;;;;;;;6.80;2.00;;;18.30;78.50;;;;;;5036560;28;20374;-75
2023/10/03 12:37:47;;;;;;;6.22;1.80;;;18.30;78.60;;;;;;5036748;28;21181;-74
2023/10/03 12:40:18;;;;;;;6.93;2.20;;;18.20;78.50;;;;;;5037980;28;20331;-74
2023/10/03 12:42:48;;;;;;;9.35;2.22;;;18.20;78.50;;;;;;5037366;28;20456;-74
2023/10/03 12:45:17;;;;;;;6.55;2.00;;;18.20;78.50;;;;;;5037161;28;20048;-74
2023/10/03 12:47:47;;;;;;;7.70;2.28;;;18.20;78.50;;;;;;5035889;28;20049;-74
2023/10/03 12:50:24;;;;;;;6.22;2.05;;;18.20;78.50;;;;;;5036874;28;20075;-74
2023/10/03 12:52:54;;;;;;;8.20;2.50;;;18.20;78.50;;;;;;5036096;28;20017;-74
2023/10/03 12:55:20;;;;;;;7.40;2.33;;;18.20;78.50;;;;;;5036307;28;20029;-75
2023/10/03 12:57:51;;;;;;;6.88;2.00;;;18.30;78.40;;;;;;5035632;28;20098;-74
2023/10/03 13:00:20;;;;;;;5.97;2.28;;;18.30;78.30;;;;;;5050083;28;20037;-74
2023/10/03 13:02:50;;;;;;;8.20;2.30;;;18.30;78.30;;;;;;5036501;28;20044;-74
2023/10/03 13:05:17;;;;;;;8.93;2.38;;;18.30;78.30;;;;;;5035853;28;20026;-74
2023/10/03 13:07:47;;;;;;;6.38;1.75;;;18.30;78.50;;;;;;5036142;28;20469;-74
2023/10/03 13:10:14;;;;;;;6.07;2.08;;;18.30;78.50;;;;;;5035486;28;20114;-74
2023/10/03 13:12:41;;;;;;;7.35;2.75;;;18.40;78.50;;;;;;5036115;28;20342;-74